»·PEaware :: JBU132 KELP-KABQ

JBU132 :: KELP-KABQ

FLIGHT INFORMATION

Flight Status: Arrived
Operator:
JetBlue Airways
More flights by this operator :: More flights under this callsign
Pilot: Ben L. (6391)
Aircraft: AIRBUS A320
(A320)
More flights by this aircraft type
Origin: KELP El Paso Intl
United States
Destination: KABQ Albuquerque Intl Sunport
United States
More flights between these airports :: More routes between these airports
Route: +RUTER TCS J13 ABQ
File this flight plan on PilotEdge
Remarks: TEMPTED TO REQUEST 8R
Altitude:
(Current/Filed)
28,000ft
Speed:
(Current/Filed)
450kts
Departed: 10-Jan-18 07:36 PM
Arrived: 10-Jan-18 08:21 PM
Distance/Time
Traveled:
195nm/0:45
Distance/Time
To Go:
Arrived

Flight Plot

Page will automatically refresh every two minutes.

Flight plan parsing failed; only flown route is shown


Map Options




Map Legend


Flown Route
Filed Route
Departure Airport
Arrival Airport
Navaid (VOR, NDB)
Fix

Horizontal Profiles

Position Reports

Time Latitude Longitude Heading Altitude Ground
Speed
10-Jan-18 19:15 31.800643 -106.393730 154 3967ft 0kts
10-Jan-18 19:16 31.800643 -106.393730 154 3967ft 0kts
10-Jan-18 19:17 31.800643 -106.393730 154 3967ft 0kts
10-Jan-18 19:18 31.800643 -106.393730 154 3967ft 0kts
10-Jan-18 19:19 31.800643 -106.393730 154 3967ft 0kts
10-Jan-18 19:20 31.800643 -106.393730 154 3967ft 0kts
10-Jan-18 19:21 31.800643 -106.393730 154 3967ft 0kts
10-Jan-18 19:22 31.800643 -106.393730 154 3967ft 0kts
10-Jan-18 19:23 31.800643 -106.393730 154 3967ft 0kts
10-Jan-18 19:24 31.800643 -106.393730 154 3967ft 0kts
10-Jan-18 19:25 31.800643 -106.393730 154 3967ft 0kts
10-Jan-18 19:26 31.800643 -106.393730 154 3967ft 0kts
10-Jan-18 19:27 31.800640 -106.393730 151 3967ft 0kts
10-Jan-18 19:28 31.800640 -106.393730 150 3967ft 0kts
10-Jan-18 19:29 31.800817 -106.393626 203 3967ft 1kts
10-Jan-18 19:30 31.801308 -106.393537 160 3967ft 0kts
10-Jan-18 19:31 31.801236 -106.393930 69 3967ft 1kts
10-Jan-18 19:32 31.801231 -106.393944 68 3967ft 0kts
10-Jan-18 19:33 31.801231 -106.393944 68 3967ft 0kts
10-Jan-18 19:34 31.801231 -106.393944 68 3967ft 0kts
10-Jan-18 19:35 31.801235 -106.393935 68 3967ft 1kts
10-Jan-18 19:36 31.799836 -106.390383 104 3967ft 16kts
10-Jan-18 19:37 31.799907 -106.381499 90 3967ft 32kts
10-Jan-18 19:38 31.799485 -106.370260 92 3967ft 36kts
10-Jan-18 19:39 31.799049 -106.360864 81 3967ft 0kts
10-Jan-18 19:40 31.799053 -106.360835 82 3967ft 0kts
10-Jan-18 19:41 31.800690 -106.361395 268 3967ft 1kts
10-Jan-18 19:42 31.800924 -106.366918 272 3967ft 104kts
10-Jan-18 19:43 31.786994 -106.410803 205 6499ft 211kts
10-Jan-18 19:44 31.731356 -106.371048 110 9932ft 268kts
10-Jan-18 19:45 31.750283 -106.283278 38 12801ft 306kts
10-Jan-18 19:46 31.827988 -106.286540 311 14780ft 324kts
10-Jan-18 19:47 31.889394 -106.368677 310 17507ft 343kts
10-Jan-18 19:48 31.965088 -106.437923 328 20046ft 360kts
10-Jan-18 19:49 32.054137 -106.494074 328 22325ft 370kts
10-Jan-18 19:50 32.145108 -106.551493 328 24322ft 381kts
10-Jan-18 19:51 32.239386 -106.611114 328 26173ft 390kts
10-Jan-18 19:52 32.334874 -106.671644 328 27811ft 400kts
10-Jan-18 19:53 32.432484 -106.733678 327 28000ft 400kts
10-Jan-18 19:54 32.530327 -106.796007 327 28001ft 401kts
10-Jan-18 19:55 32.628188 -106.858501 328 28030ft 397kts
10-Jan-18 19:56 32.723844 -106.919741 328 28027ft 389kts
10-Jan-18 19:57 32.817476 -106.979832 328 27966ft 380kts
10-Jan-18 19:58 32.908859 -107.038614 328 27934ft 372kts
10-Jan-18 19:59 32.998682 -107.096532 328 27901ft 369kts
10-Jan-18 20:00 33.089197 -107.155027 328 27900ft 375kts
10-Jan-18 20:01 33.180436 -107.214117 328 27957ft 385kts
10-Jan-18 20:02 33.277870 -107.264502 344 27955ft 395kts
10-Jan-18 20:03 33.389134 -107.252876 4 27939ft 412kts
10-Jan-18 20:04 33.500341 -107.224159 4 27928ft 409kts
10-Jan-18 20:05 33.604016 -107.197234 3 27945ft 371kts
10-Jan-18 20:06 33.704075 -107.171217 3 27351ft 368kts
10-Jan-18 20:07 33.803115 -107.145366 3 26082ft 365kts
10-Jan-18 20:08 33.900878 -107.119793 3 24821ft 358kts
10-Jan-18 20:09 33.994902 -107.095087 2 23595ft 333kts
10-Jan-18 20:10 34.082117 -107.072218 2 22362ft 321kts
10-Jan-18 20:11 34.166199 -107.050160 2 21099ft 316kts
10-Jan-18 20:12 34.250092 -107.027985 2 19240ft 310kts
10-Jan-18 20:13 34.332821 -107.006080 3 17377ft 305kts
10-Jan-18 20:14 34.414077 -106.984528 3 15579ft 300kts
10-Jan-18 20:15 34.493936 -106.963313 3 13839ft 294kts
10-Jan-18 20:16 34.572321 -106.942419 3 12155ft 289kts
10-Jan-18 20:17 34.646907 -106.908354 14 11046ft 290kts
10-Jan-18 20:18 34.719113 -106.871443 14 10590ft 271kts
10-Jan-18 20:19 34.782309 -106.839334 14 9207ft 229kts
10-Jan-18 20:20 34.838328 -106.812452 14 8060ft 203kts
10-Jan-18 20:21 34.888346 -106.789063 14 8021ft 187kts
10-Jan-18 20:22 34.934887 -106.767541 12 8101ft 184kts
10-Jan-18 20:23 34.977222 -106.746508 19 7685ft 149kts
10-Jan-18 20:24 35.016927 -106.719278 29 6606ft 177kts
10-Jan-18 20:25 35.045869 -106.676133 85 5873ft 151kts
10-Jan-18 20:26 35.044363 -106.625616 86 5525ft 146kts
10-Jan-18 20:27 35.044341 -106.593835 78 5363ft 40kts
10-Jan-18 20:28 35.045807 -106.594446 272 5363ft 16kts
10-Jan-18 20:29 35.045721 -106.600567 269 5363ft 20kts
10-Jan-18 20:30 35.045798 -106.608133 270 5363ft 24kts
10-Jan-18 20:31 35.046282 -106.615114 305 5363ft 11kts
10-Jan-18 20:32 35.046890 -106.615388 8 5363ft 0kts
10-Jan-18 20:33 35.046890 -106.615388 8 5363ft 0kts

Navigation Log

Ident Type
Flight plan parsing failed, navigation log unavailable